Time;durP1;ratioP1;P1;durP2;ratioP2;P2;SDS_P1;SDS_P2;PMS_P1;PMS_P2;Temp;Humidity;BMP_temperature;BMP_pressure;BME280_temperature;BME280_humidity;BME280_pressure;Samples;Min_cycle;Max_cycle;Signal;HPM_P1;HPM_P2
2022/09/12 00:02:43;;;;;;;;;6.00;4.00;;;;;25.47;52.08;100258.16;146613;569;46017;-85
2022/09/12 00:05:37;;;;;;;;;3.00;3.00;;;;;25.45;52.04;100249.38;146619;679;45020;-83
2022/09/12 00:08:30;;;;;;;;;4.00;3.00;;;;;25.48;52.05;100267.00;146614;582;46017;-80
2022/09/12 00:11:39;;;;;;;;;4.00;3.00;;;;;25.40;51.93;100258.31;146613;590;46020;-77
2022/09/12 00:14:41;;;;;;;;;3.33;2.67;;;;;25.22;51.65;100262.12;146614;649;46016;-80
2022/09/12 00:17:52;;;;;;;;;;;;;;;;;;;;;
2022/09/12 00:20:53;;;;;;;;;7.00;5.00;;;;;25.05;53.04;100259.72;146613;575;46016;-84
2022/09/12 00:23:58;;;;;;;;;3.00;3.00;;;;;24.99;52.48;100266.00;146619;647;46011;-84
2022/09/12 00:27:06;;;;;;;;;2.67;2.67;;;;;22.44;52.02;99836.94;146614;570;46014;-85
2022/09/12 00:30:10;;;;;;;;;4.25;3.25;;;;;24.89;53.27;100264.37;146616;613;46010;-81
2022/09/12 00:33:03;;;;;;;;;3.00;3.00;;;;;24.73;53.47;100263.72;146614;572;46033;-80
2022/09/12 00:36:03;;;;;;;;;4.00;4.00;;;;;24.58;53.21;100272.78;146617;594;46020;-82
2022/09/12 00:39:05;;;;;;;;;3.00;3.00;;;;;24.51;53.56;100278.16;146616;595;47014;-80
2022/09/12 00:42:07;;;;;;;;;2.33;2.00;;;;;24.49;54.53;100279.97;146619;563;46014;-80
2022/09/12 00:45:05;;;;;;;;;3.00;3.00;;;;;24.42;53.95;100271.19;146612;569;46016;-78
2022/09/12 00:48:21;;;;;;;;;4.67;3.33;;;;;24.41;53.55;100277.37;146618;617;46010;-89
2022/09/12 00:51:15;;;;;;;;;3.00;2.00;;;;;24.39;54.71;100274.75;146616;604;46012;-85
2022/09/12 00:54:13;;;;;;;;;4.00;3.67;;;;;24.40;54.07;100272.97;146618;581;46010;-83
2022/09/12 00:57:21;;;;;;;;;4.33;3.33;;;;;24.46;53.99;100274.72;146614;580;46012;-79
2022/09/12 01:00:33;;;;;;;;;5.00;3.00;;;;;24.47;52.62;100268.50;146616;625;46011;-81
2022/09/12 01:03:41;;;;;;;;;3.33;3.33;;;;;23.03;51.24;99996.62;146616;570;46016;-78
2022/09/12 01:06:40;;;;;;;;;3.00;3.00;;;;;24.72;51.63;100269.06;146615;608;46010;-78
2022/09/12 01:09:32;;;;;;;;;3.00;2.00;;;;;24.77;52.82;100281.34;146615;573;46017;-78
2022/09/12 01:12:41;;;;;;;;;2.33;2.33;;;;;24.82;51.89;100271.53;146615;569;46020;-83
2022/09/12 01:15:51;;;;;;;;;4.00;3.00;;;;;24.97;51.56;100274.87;146610;629;46028;-84
2022/09/12 01:19:22;;;;;;;;;4.00;3.00;;;;;25.10;50.58;100273.78;146615;564;46020;-85
2022/09/12 01:22:52;;;;;;;;;4.00;4.00;;;;;25.20;50.60;100275.41;146614;617;46915;-82
2022/09/12 01:26:22;;;;;;;;;4.00;3.00;;;;;25.31;50.36;100260.22;146615;574;46010;-83
2022/09/12 01:29:56;;;;;;;;;3.00;3.00;;;;;25.40;50.81;100268.94;146617;574;46015;-85
2022/09/12 01:33:49;;;;;;;;;4.00;3.00;;;;;23.62;51.04;99957.09;146616;563;46020;-87
2022/09/12 01:37:24;;;;;;;;;;;;;;;;;;;;;
2022/09/12 01:41:14;;;;;;;;;;;;;;;;;;;;;
2022/09/12 01:44:28;;;;;;;;;5.67;5.00;;;;;25.55;48.33;100271.31;146615;597;46016;-89
2022/09/12 01:47:59;;;;;;;;;6.00;6.00;;;;;23.94;47.40;99995.47;146618;611;46010;-85
2022/09/12 01:51:04;;;;;;;;;4.00;4.00;;;;;25.54;48.34;100280.16;146614;641;46012;-85
2022/09/12 01:54:17;;;;;;;;;5.33;5.00;;;;;25.45;47.90;100275.91;146615;564;46029;-82
2022/09/12 01:57:37;;;;;;;;;9.50;7.75;;;;;25.42;48.17;100270.66;146611;585;46016;-80
2022/09/12 02:00:45;;;;;;;;;;;;;;;;;;;;;
2022/09/12 02:03:47;;;;;;;;;5.50;5.50;;;;;25.40;47.90;100275.09;146611;611;46016;-82
2022/09/12 02:06:58;;;;;;;;;4.00;4.00;;;;;25.41;48.62;100271.53;146616;749;46020;-82
2022/09/12 02:10:26;;;;;;;;;6.00;6.00;;;;;25.43;49.49;100280.38;146616;588;46014;-77
2022/09/12 02:13:48;;;;;;;;;5.00;5.00;;;;;25.32;49.72;100272.56;146616;738;46020;-76
2022/09/12 02:17:01;;;;;;;;;5.00;4.33;;;;;22.75;50.59;99841.87;146617;582;46012;-89
2022/09/12 02:20:36;;;;;;;;;4.00;4.00;;;;;25.17;51.44;100271.94;146617;622;45020;-79
2022/09/12 02:23:35;;;;;;;;;6.00;4.00;;;;;24.15;52.66;100135.53;146615;569;46013;-81
2022/09/12 02:26:42;;;;;;;;;4.00;3.75;;;;;24.89;52.82;100285.59;146618;587;46010;-82
2022/09/12 02:29:59;;;;;;;;;4.67;4.67;;;;;24.78;52.70;100288.41;146614;669;46017;-77
2022/09/12 02:33:25;;;;;;;;;4.00;4.00;;;;;22.79;52.57;99965.16;146619;599;46010;-77
2022/09/12 02:36:53;;;;;;;;;6.50;4.75;;;;;24.65;50.67;100289.47;146614;591;46034;-78
2022/09/12 02:39:59;;;;;;;;;7.00;6.00;;;;;24.70;50.36;100292.91;146616;575;47010;-77
2022/09/12 02:42:51;;;;;;;;;4.33;4.33;;;;;24.77;48.66;100310.53;146614;644;46016;-79
2022/09/12 02:45:43;;;;;;;;;7.25;5.25;;;;;24.84;47.80;100293.63;146618;590;46020;-78
2022/09/12 02:49:03;;;;;;;;;8.00;6.00;;;;;23.12;48.45;99976.28;146613;596;46016;-78
2022/09/12 02:52:07;;;;;;;;;5.00;4.50;;;;;25.00;47.96;100282.78;146616;582;46021;-77
2022/09/12 02:55:19;;;;;;;;;5.00;5.00;;;;;23.29;47.31;99976.94;146613;580;46016;-77
2022/09/12 02:58:16;;;;;;;;;6.67;5.00;;;;;25.15;46.66;100285.25;146617;569;46021;-78
2022/09/12 03:02:07;;;;;;;;;5.33;5.33;;;;;23.32;45.46;99955.72;146615;572;46017;-80
2022/09/12 03:05:40;;;;;;;;;5.33;5.33;;;;;25.24;45.72;100289.53;146617;563;46020;-79
2022/09/12 03:09:04;;;;;;;;;3.67;3.67;;;;;25.28;45.58;100292.09;146613;639;46019;-81
2022/09/12 03:12:38;;;;;;;;;4.33;4.00;;;;;23.56;45.36;99993.34;146615;625;46020;-78
2022/09/12 03:16:22;;;;;;;;;6.00;5.00;;;;;23.56;45.30;99982.75;146616;602;46016;-77
2022/09/12 03:19:36;;;;;;;;;2.67;2.67;;;;;25.35;45.58;100288.44;146617;593;46010;-85
2022/09/12 03:23:06;;;;;;;;;4.67;3.67;;;;;25.34;44.99;100296.44;146612;609;46017;-83
2022/09/12 03:26:09;;;;;;;;;5.00;5.00;;;;;25.31;44.09;100296.50;146616;579;46038;-83
2022/09/12 03:29:07;;;;;;;;;4.00;4.00;;;;;25.30;44.21;100294.75;146615;607;46013;-80
2022/09/12 03:32:03;;;;;;;;;4.33;4.00;;;;;25.33;45.29;100302.66;146617;597;45020;-81
2022/09/12 03:35:05;;;;;;;;;;;;;;;;;;;;;
2022/09/12 03:38:09;;;;;;;;;5.25;5.25;;;;;25.39;45.43;100297.25;146616;600;46021;-77
2022/09/12 03:41:04;;;;;;;;;3.33;3.00;;;;;25.39;44.51;100299.00;146610;630;46016;-77
2022/09/12 03:44:08;;;;;;;;;4.00;4.00;;;;;25.35;44.71;100292.88;146613;606;47010;-77
2022/09/12 03:47:12;;;;;;;;;5.00;5.00;;;;;25.29;45.06;100295.63;146614;589;46016;-81
2022/09/12 03:50:07;;;;;;;;;4.00;4.00;;;;;25.24;42.65;100293.06;146617;594;46010;-84
2022/09/12 03:53:09;;;;;;;;;3.67;2.67;;;;;25.22;45.12;100304.59;146616;575;46012;-79
2022/09/12 03:56:26;;;;;;;;;4.00;3.00;;;;;23.38;44.40;99987.41;146618;587;46020;-77
2022/09/12 03:59:43;;;;;;;;;;;;;;;;;;;;;
2022/09/12 04:02:39;;;;;;;;;3.00;3.00;;;;;25.16;43.89;100317.94;146616;563;46020;-83
2022/09/12 04:05:31;;;;;;;;;2.33;2.00;;;;;25.17;44.92;100325.00;146614;611;46016;-82
2022/09/12 04:08:40;;;;;;;;;1.33;1.33;;;;;25.16;42.85;100326.78;146618;614;46020;-77
2022/09/12 04:11:49;;;;;;;;;3.33;1.00;;;;;23.34;43.25;100009.50;146614;570;46016;-75
2022/09/12 04:14:41;;;;;;;;;2.00;2.00;;;;;25.23;42.73;100335.53;146616;578;46010;-75
2022/09/12 04:17:37;;;;;;;;;3.00;2.00;;;;;25.21;42.93;100332.91;146613;663;46016;-74
2022/09/12 04:20:34;;;;;;;;;3.33;2.00;;;;;25.20;42.96;100336.44;146618;566;46010;-74
2022/09/12 04:23:29;;;;;;;;;4.33;3.33;;;;;25.20;42.60;100336.44;146616;604;46012;-74
2022/09/12 04:26:28;;;;;;;;;4.67;2.67;;;;;25.22;43.64;100342.63;146618;607;46020;-74
2022/09/12 04:29:24;;;;;;;;;4.33;4.33;;;;;25.22;44.20;100333.78;146614;577;46014;-74
2022/09/12 04:32:26;;;;;;;;;5.00;4.00;;;;;25.22;44.43;100339.09;146617;572;46014;-79
2022/09/12 04:35:30;;;;;;;;;4.00;4.00;;;;;25.22;45.22;100347.91;146615;625;46016;-78
2022/09/12 04:38:31;;;;;;;;;5.00;4.00;;;;;25.24;42.72;100343.47;146618;644;45030;-79
2022/09/12 04:41:49;;;;;;;;;6.67;4.33;;;;;23.22;44.58;99999.94;146614;634;46016;-80
2022/09/12 04:44:42;;;;;;;;;4.00;3.67;;;;;25.32;43.52;100353.97;146615;653;46010;-79
2022/09/12 04:47:45;;;;;;;;;5.33;4.00;;;;;25.52;43.58;100348.38;146615;633;46016;-83
2022/09/12 04:50:43;;;;;;;;;5.50;5.50;;;;;26.18;42.94;100350.75;146616;710;45020;-84
2022/09/12 04:53:36;;;;;;;;;4.00;4.00;;;;;26.93;41.80;100343.94;146613;613;46913;-86
2022/09/12 04:56:37;;;;;;;;;3.00;3.00;;;;;27.69;40.87;100350.19;146616;577;46020;-87
2022/09/12 04:59:32;;;;;;;;;2.67;2.67;;;;;28.33;39.69;100343.19;146615;597;46034;-80
2022/09/12 05:02:24;;;;;;;;;5.67;3.67;;;;;28.73;38.66;100350.06;146617;580;46010;-75
2022/09/12 05:05:35;;;;;;;;;5.00;4.00;;;;;29.06;39.03;100355.31;146614;609;46015;-73
2022/09/12 05:08:38;;;;;;;;;3.00;3.00;;;;;29.22;38.76;100364.59;146615;640;46020;-80
2022/09/12 05:11:40;;;;;;;;;4.00;4.00;;;;;29.18;38.70;100373.63;146613;572;46015;-76
2022/09/12 05:14:40;;;;;;;;;3.00;2.33;;;;;29.07;36.84;100375.78;146618;606;45030;-76
2022/09/12 05:17:39;;;;;;;;;3.33;2.67;;;;;28.83;37.00;100370.22;146617;569;46025;-77
2022/09/12 05:20:31;;;;;;;;;2.33;1.33;;;;;28.52;36.06;100367.56;146615;616;46010;-76
2022/09/12 05:23:27;;;;;;;;;1.67;1.67;;;;;28.17;36.09;100373.84;146615;564;46023;-78
2022/09/12 05:26:38;;;;;;;;;2.00;2.00;;;;;26.12;38.15;100058.59;146617;568;46010;-76
2022/09/12 05:29:33;;;;;;;;;2.67;1.67;;;;;27.64;35.34;100368.94;146615;570;46016;-84
2022/09/12 05:32:26;;;;;;;;;1.00;1.00;;;;;27.51;37.15;100365.72;146617;569;46020;-78
2022/09/12 05:35:37;;;;;;;;;3.00;3.00;;;;;25.65;38.34;100071.13;146612;689;46014;-78
2022/09/12 05:38:41;;;;;;;;;2.33;2.00;;;;;26.53;37.53;100239.34;146617;641;46010;-82
2022/09/12 05:41:37;;;;;;;;;2.00;2.00;;;;;27.36;38.79;100376.72;146614;625;46016;-77
2022/09/12 05:44:33;;;;;;;;;3.00;3.00;;;;;27.39;37.91;100376.66;146615;579;46010;-77
2022/09/12 05:47:30;;;;;;;;;2.00;2.00;;;;;27.40;39.58;100378.41;146615;578;46016;-74
2022/09/12 05:50:35;;;;;;;;;3.67;2.00;;;;;27.36;38.02;100380.25;146616;565;46021;-76
2022/09/12 05:53:30;;;;;;;;;2.33;2.00;;;;;27.29;38.58;100376.00;146614;607;46016;-77
2022/09/12 05:56:32;;;;;;;;;2.00;2.00;;;;;27.26;38.17;100376.06;146617;630;46010;-85
2022/09/12 05:59:34;;;;;;;;;2.00;2.00;;;;;27.27;38.86;100371.63;146614;591;46016;-86
2022/09/12 06:02:38;;;;;;;;;2.00;1.33;;;;;27.35;38.19;100374.97;146619;590;46010;-82
2022/09/12 06:05:40;;;;;;;;;2.00;2.00;;;;;27.38;37.82;100382.87;146615;612;46014;-83
2022/09/12 06:08:44;;;;;;;;;2.33;2.33;;;;;27.48;38.34;100383.56;146619;681;46020;-72
2022/09/12 06:11:42;;;;;;;;;2.67;2.00;;;;;27.58;37.93;100390.41;146612;646;46016;-72
2022/09/12 06:14:40;;;;;;;;;3.00;3.00;;;;;27.64;37.47;100379.59;146616;622;46021;-71
2022/09/12 06:17:39;;;;;;;;;4.00;2.33;;;;;27.60;38.13;100389.47;146617;604;46012;-71
2022/09/12 06:20:45;;;;;;;;;3.00;3.00;;;;;27.62;37.91;100398.28;146616;586;46020;-71
2022/09/12 06:23:51;;;;;;;;;2.67;2.67;;;;;25.88;39.54;100099.00;146615;644;46012;-72
2022/09/12 06:26:43;;;;;;;;;5.00;3.00;;;;;27.70;37.93;100405.22;146618;626;46020;-72
2022/09/12 06:29:40;;;;;;;;;3.00;3.00;;;;;27.79;37.86;100405.03;146615;582;46012;-71
2022/09/12 06:32:45;;;;;;;;;2.00;2.00;;;;;27.84;37.79;100401.31;146618;566;46020;-71
2022/09/12 06:35:54;;;;;;;;;2.33;2.33;;;;;27.88;35.86;100404.78;146614;575;46016;-70
2022/09/12 06:38:56;;;;;;;;;2.00;2.00;;;;;27.85;36.31;100405.75;146620;640;46020;-79
2022/09/12 06:41:59;;;;;;;;;3.00;3.00;;;;;27.91;37.47;100402.03;146615;577;46017;-73
2022/09/12 06:44:51;;;;;;;;;4.00;3.00;;;;;27.96;36.26;100405.47;146618;585;46010;-81
2022/09/12 06:47:56;;;;;;;;;3.67;2.33;;;;;28.02;34.86;100407.97;146614;636;46012;-76
2022/09/12 06:51:05;;;;;;;;;3.33;3.00;;;;;28.13;35.67;100412.12;146617;703;46011;-82
2022/09/12 06:54:07;;;;;;;;;3.67;3.67;;;;;28.21;36.42;100416.37;146617;631;46012;-78
2022/09/12 06:57:00;;;;;;;;;5.00;4.00;;;;;28.25;35.51;100418.03;146619;577;46010;-83
2022/09/12 07:00:12;;;;;;;;;3.67;2.00;;;;;28.36;35.58;100423.09;146618;564;46012;-79
2022/09/12 07:03:22;;;;;;;;;2.67;2.67;;;;;28.51;36.87;100417.38;146616;641;46030;-78
2022/09/12 07:06:16;;;;;;;;;2.00;2.00;;;;;28.69;35.33;100436.44;146616;566;46016;-80
2022/09/12 07:09:15;;;;;;;;;2.00;2.00;;;;;28.88;34.63;100429.69;146618;572;46020;-78
2022/09/12 07:12:39;;;;;;;;;2.33;2.33;;;;;29.06;34.88;100438.06;146616;592;46913;-83
2022/09/12 07:15:43;;;;;;;;;3.00;2.67;;;;;29.22;35.19;100450.03;146616;565;46010;-83
2022/09/12 07:18:42;;;;;;;;;3.00;3.00;;;;;29.41;33.74;100467.28;146612;576;46013;-76
2022/09/12 07:21:46;;;;;;;;;3.00;2.00;;;;;29.52;34.49;100474.06;146618;593;46021;-72
2022/09/12 07:24:54;;;;;;;;;3.00;3.00;;;;;29.58;33.79;100471.22;146615;583;46031;-75
2022/09/12 07:27:54;;;;;;;;;3.33;2.67;;;;;29.77;36.58;100482.22;146618;585;46014;-78
2022/09/12 07:30:58;;;;;;;;;3.00;3.00;;;;;29.93;33.72;100470.97;146616;586;48022;-75
2022/09/12 07:33:57;;;;;;;;;1.00;1.00;;;;;30.14;35.83;100473.88;146618;598;46010;-79
2022/09/12 07:36:53;;;;;;;;;2.33;2.33;;;;;30.25;33.24;100477.09;146616;638;46016;-74
2022/09/12 07:39:47;;;;;;;;;2.67;2.67;;;;;30.30;34.21;100466.25;146617;580;46010;-78
2022/09/12 07:42:46;;;;;;;;;2.00;2.00;;;;;30.57;33.12;100478.66;146614;588;46014;-78
2022/09/12 07:45:43;;;;;;;;;1.00;1.00;;;;;30.80;33.83;100482.34;146614;597;47010;-75
2022/09/12 07:48:44;;;;;;;;;2.33;2.00;;;;;30.96;30.58;100485.31;146614;598;46035;-77
2022/09/12 07:51:43;;;;;;;;;2.00;2.00;;;;;30.98;32.62;100495.06;146617;581;46020;-78
2022/09/12 07:54:40;;;;;;;;;1.00;1.00;;;;;31.11;31.98;100486.56;146616;612;46016;-80
2022/09/12 07:57:35;;;;;;;;;2.00;2.00;;;;;31.30;30.04;100480.44;146615;571;46010;-80
2022/09/12 08:00:34;;;;;;;;;3.00;3.00;;;;;31.42;29.52;100486.28;146615;636;46016;-78
2022/09/12 08:03:35;;;;;;;;;3.00;2.00;;;;;31.46;29.63;100487.91;146617;575;47010;-81
2022/09/12 08:06:30;;;;;;;;;3.67;2.00;;;;;31.36;31.50;100490.09;146610;569;46016;-79
2022/09/12 08:09:28;;;;;;;;;2.00;2.00;;;;;31.19;30.02;100497.87;146616;570;47013;-77
2022/09/12 08:12:26;;;;;;;;;2.00;2.00;;;;;31.13;32.38;100511.50;146616;587;46014;-72
2022/09/12 08:15:28;;;;;;;;;2.00;2.00;;;;;31.11;29.62;100506.19;146617;582;45020;-76
2022/09/12 08:18:38;;;;;;;;;2.00;2.00;;;;;31.11;29.63;100498.13;146617;603;46013;-78
2022/09/12 08:21:34;;;;;;;;;2.00;2.00;;;;;31.06;29.20;100505.50;146614;645;46018;-79
2022/09/12 08:24:40;;;;;;;;;3.00;3.00;;;;;29.39;32.15;100222.53;146613;573;46015;-78
2022/09/12 08:27:34;;;;;;;;;2.00;2.00;;;;;31.07;28.59;100496.53;146618;615;46020;-77
2022/09/12 08:30:41;;;;;;;;;2.00;2.00;;;;;29.49;30.20;100209.72;146614;580;45016;-76
2022/09/12 08:33:38;;;;;;;;;3.00;2.00;;;;;31.20;30.57;100504.97;146616;670;46021;-75
2022/09/12 08:36:42;;;;;;;;;3.67;2.00;;;;;31.35;28.87;100498.19;146615;648;47012;-81
2022/09/12 08:39:42;;;;;;;;;3.00;3.00;;;;;31.48;29.42;100492.28;146616;579;46020;-74
2022/09/12 08:43:26;;;;;;;;;2.67;2.67;;;;;30.28;31.36;100260.38;146615;590;46016;-78
2022/09/12 08:46:44;;;;;;;;;3.00;2.00;;;;;31.81;32.39;100507.06;146618;567;46012;-74
2022/09/12 08:50:16;;;;;;;;;3.00;3.00;;;;;31.98;30.55;100488.53;146614;585;47012;-77
2022/09/12 08:53:20;;;;;;;;;2.00;2.00;;;;;32.12;31.67;100482.59;146616;575;46010;-77
2022/09/12 08:56:21;;;;;;;;;3.00;3.00;;;;;32.22;32.88;100470.56;146617;637;46034;-75
2022/09/12 08:59:42;;;;;;;;;;;;;;;;;;;;;
2022/09/12 09:03:15;;;;;;;;;0.00;0.00;;;;;32.52;33.23;100487.16;146616;596;46034;-76
2022/09/12 09:06:41;;;;;;;;;4.00;4.00;;;;;32.61;32.99;100500.19;146618;570;46020;-77
2022/09/12 09:10:23;;;;;;;;;4.33;2.67;;;;;30.75;32.63;100161.31;146616;669;46017;-76
2022/09/12 09:17:24;;;;;;;;;2.33;2.00;;;;;32.95;31.09;100493.31;146611;592;46016;-75
2022/09/12 09:20:48;;;;;;;;;4.00;3.00;;;;;33.03;31.03;100495.69;146617;640;46020;-75
2022/09/12 09:23:49;;;;;;;;;3.67;3.67;;;;;33.07;31.72;100498.16;146613;644;46014;-76
2022/09/12 09:27:04;;;;;;;;;3.00;3.00;;;;;33.12;30.53;100481.84;146615;628;46021;-78
2022/09/12 09:30:00;;;;;;;;;3.00;3.00;;;;;33.13;30.57;100486.28;146614;620;46016;-77
2022/09/12 09:33:15;;;;;;;;;2.67;2.67;;;;;33.15;30.36;100484.41;146614;623;46050;-77
2022/09/12 09:36:46;;;;;;;;;2.00;1.00;;;;;33.22;31.34;100491.22;146613;579;46016;-84
2022/09/12 09:40:09;;;;;;;;;1.00;1.00;;;;;32.35;31.57;100326.88;146615;580;47010;-79
2022/09/12 09:43:28;;;;;;;;;2.33;2.33;;;;;33.27;30.40;100485.59;146613;613;46012;-76
2022/09/12 09:46:26;;;;;;;;;3.33;3.00;;;;;33.24;29.91;100485.75;146610;608;47021;-75
2022/09/12 09:49:21;;;;;;;;;2.33;2.33;;;;;33.16;29.55;100485.25;146613;581;46012;-76
2022/09/12 09:52:28;;;;;;;;;3.00;3.00;;;;;32.83;29.11;100488.50;146614;579;47010;-71
2022/09/12 09:55:28;;;;;;;;;1.67;1.67;;;;;32.42;28.97;100502.75;146614;625;46013;-68
2022/09/12 09:58:35;;;;;;;;;1.33;1.33;;;;;32.01;30.28;100493.78;146618;563;46010;-73
2022/09/12 10:01:31;;;;;;;;;3.33;2.00;;;;;31.81;29.27;100493.69;146613;572;46915;-69
2022/09/12 10:04:34;;;;;;;;;1.33;1.33;;;;;31.71;30.15;100496.75;146617;566;46027;-76
2022/09/12 10:07:36;;;;;;;;;3.00;2.00;;;;;31.61;30.25;100500.72;146613;587;46016;-79
2022/09/12 10:10:43;;;;;;;;;1.00;1.00;;;;;31.57;31.39;100500.91;146618;602;46011;-75
2022/09/12 10:14:03;;;;;;;;;0.33;0.33;;;;;31.74;31.94;100506.47;146616;609;46012;-76
2022/09/12 10:17:02;;;;;;;;;1.00;1.00;;;;;31.90;28.58;100496.00;146616;592;46021;-77
2022/09/12 10:20:05;;;;;;;;;1.00;1.00;;;;;31.91;28.39;100504.00;146616;591;46016;-72
2022/09/12 10:23:01;;;;;;;;;1.00;0.00;;;;;31.95;29.39;100497.59;146617;569;46021;-79
2022/09/12 10:26:05;;;;;;;;;2.00;1.00;;;;;32.17;30.35;100496.69;146612;661;46016;-74
2022/09/12 10:29:22;;;;;;;;;1.00;1.00;;;;;31.39;29.69;100331.87;146617;587;46010;-74
2022/09/12 10:32:50;;;;;;;;;3.00;1.33;;;;;32.45;31.17;100503.59;146608;575;48913;-78
2022/09/12 10:36:28;;;;;;;;;1.00;1.00;;;;;31.33;31.40;100278.53;146619;583;46010;-80
2022/09/12 10:39:27;;;;;;;;;1.00;1.00;;;;;32.79;29.34;100503.00;146616;590;46016;-76
2022/09/12 10:42:21;;;;;;;;;0.67;0.67;;;;;32.77;28.27;100502.19;146616;644;46020;-75
2022/09/12 10:45:36;;;;;;;;;2.67;2.00;;;;;32.65;30.71;100506.31;146612;627;46017;-69
2022/09/12 10:48:39;;;;;;;;;1.33;1.33;;;;;32.33;29.91;100508.50;146618;634;46020;-73
2022/09/12 10:51:36;;;;;;;;;0.33;0.33;;;;;32.03;29.59;100502.66;146615;589;46016;-73
2022/09/12 10:54:33;;;;;;;;;2.00;2.00;;;;;31.72;30.86;100506.53;146615;652;46011;-72
2022/09/12 10:58:06;;;;;;;;;0.33;0.33;;;;;29.88;32.08;100239.53;146617;571;46012;-73
2022/09/12 11:01:10;;;;;;;;;1.00;0.00;;;;;31.39;31.47;100510.53;146618;565;46010;-68
2022/09/12 11:04:52;;;;;;;;;;;;;;;;;;;;;
2022/09/12 11:08:30;;;;;;;;;1.33;0.00;;;;;31.58;31.12;100499.97;146619;582;46015;-76
2022/09/12 11:12:04;;;;;;;;;0.00;0.00;;;;;30.00;32.27;100230.19;146616;641;46016;-72
2022/09/12 11:15:33;;;;;;;;;0.00;0.00;;;;;31.58;30.15;100495.47;146618;589;46020;-76
2022/09/12 11:19:26;;;;;;;;;0.00;0.00;;;;;29.86;31.23;100193.28;146615;599;46012;-74
2022/09/12 11:22:46;;;;;;;;;1.00;0.00;;;;;31.79;30.47;100501.78;146616;685;46020;-76
2022/09/12 11:26:05;;;;;;;;;0.00;0.00;;;;;31.98;28.66;100499.28;146618;589;46012;-73
2022/09/12 11:30:12;;;;;;;;;0.00;0.00;;;;;31.89;31.90;100491.59;146615;597;46010;-72
2022/09/12 11:33:31;;;;;;;;;0.67;0.67;;;;;31.85;28.73;100485.47;146614;580;46913;-72
2022/09/12 11:37:09;;;;;;;;;2.33;1.00;;;;;30.62;30.00;100264.41;146616;579;46020;-80
2022/09/12 11:40:29;;;;;;;;;0.00;0.00;;;;;31.94;29.31;100476.22;146615;577;46016;-76
2022/09/12 11:44:00;;;;;;;;;0.00;0.00;;;;;31.91;29.09;100481.69;146617;574;46020;-75
2022/09/12 11:47:01;;;;;;;;;0.33;0.00;;;;;31.97;30.09;100479.62;146614;581;46017;-78
2022/09/12 11:50:28;;;;;;;;;0.00;0.00;;;;;32.10;30.81;100484.50;146617;569;46010;-76
2022/09/12 11:53:35;;;;;;;;;0.00;0.00;;;;;32.23;28.63;100471.44;146616;623;46014;-70
2022/09/12 11:56:39;;;;;;;;;0.00;0.00;;;;;32.22;27.09;100467.87;146616;671;46020;-78
2022/09/12 12:00:30;;;;;;;;;0.00;0.00;;;;;32.13;28.30;100495.09;146613;685;46013;-75
2022/09/12 12:03:45;;;;;;;;;0.00;0.00;;;;;31.99;27.25;100468.81;146615;654;46020;-75
2022/09/12 12:07:29;;;;;;;;;0.00;0.00;;;;;31.89;28.86;100456.75;146615;571;47014;-74
2022/09/12 12:10:47;;;;;;;;;0.00;0.00;;;;;31.93;29.39;100463.72;146616;617;46020;-75
2022/09/12 12:14:13;;;;;;;;;0.00;0.00;;;;;32.03;29.80;100461.56;146615;582;46016;-76
2022/09/12 12:17:05;;;;;;;;;0.00;0.00;;;;;32.08;27.26;100455.03;146617;627;46010;-76
2022/09/12 12:20:20;;;;;;;;;0.00;0.00;;;;;32.12;27.21;100448.62;146615;603;46012;-76
2022/09/12 12:23:39;;;;;;;;;0.00;0.00;;;;;32.13;28.00;100442.31;146615;577;47014;-69
2022/09/12 12:27:02;;;;;;;;;0.00;0.00;;;;;30.59;27.86;100171.78;146615;632;46016;-68
2022/09/12 12:29:57;;;;;;;;;0.00;0.00;;;;;32.18;27.98;100447.47;146617;664;46011;-74
2022/09/12 12:32:55;;;;;;;;;0.00;0.00;;;;;32.22;27.89;100438.38;146615;605;46034;-77
2022/09/12 12:36:27;;;;;;;;;0.67;0.67;;;;;30.75;28.07;100172.00;146617;569;46020;-79
2022/09/12 12:40:09;;;;;;;;;0.00;0.00;;;;;30.71;29.52;100166.81;146615;637;46016;-77
2022/09/12 12:43:07;;;;;;;;;0.00;0.00;;;;;32.07;27.99;100429.16;146618;571;46021;-76
2022/09/12 12:46:21;;;;;;;;;1.33;0.00;;;;;32.01;26.91;100426.72;146614;680;46012;-80
2022/09/12 12:49:44;;;;;;;;;1.00;0.00;;;;;32.02;26.84;100427.59;146618;581;47010;-74
2022/09/12 12:53:01;;;;;;;;;0.00;0.00;;;;;32.03;29.04;100421.31;146614;581;46016;-77
2022/09/12 12:56:03;;;;;;;;;0.33;0.33;;;;;32.04;28.00;100428.41;146617;564;46020;-81
2022/09/12 12:59:10;;;;;;;;;0.00;0.00;;;;;32.04;27.14;100423.06;146613;592;46016;-73
2022/09/12 13:02:09;;;;;;;;;0.00;0.00;;;;;31.99;26.08;100420.56;146615;566;46020;-79
2022/09/12 13:05:08;;;;;;;;;0.00;0.00;;;;;31.89;27.36;100409.34;146616;581;46016;-77
2022/09/12 13:08:28;;;;;;;;;0.00;0.00;;;;;31.81;26.46;100413.25;146613;569;47010;-80
2022/09/12 13:11:44;;;;;;;;;0.00;0.00;;;;;31.73;28.61;100419.81;146611;576;46016;-77
2022/09/12 13:15:01;;;;;;;;;0.00;0.00;;;;;31.75;29.15;100415.25;146614;594;46021;-77
2022/09/12 13:18:24;;;;;;;;;0.00;0.00;;;;;31.74;28.54;100418.84;146616;586;46012;-79
2022/09/12 13:21:24;;;;;;;;;0.67;0.33;;;;;31.71;26.83;100418.12;146613;577;48010;-76
2022/09/12 13:24:23;;;;;;;;;2.33;1.33;;;;;31.64;26.94;100406.78;146614;637;46016;-76
2022/09/12 13:27:44;;;;;;;;;0.33;0.33;;;;;30.22;29.24;100183.03;146615;602;46010;-75
2022/09/12 13:30:51;;;;;;;;;1.00;1.00;;;;;31.44;27.51;100399.56;146614;609;46016;-76
2022/09/12 13:34:05;;;;;;;;;0.00;0.00;;;;;31.32;26.91;100397.34;146619;575;47014;-81
2022/09/12 13:38:01;;;;;;;;;0.00;0.00;;;;;30.33;28.15;100245.00;146614;627;46017;-80
2022/09/12 13:41:43;;;;;;;;;3.00;3.00;;;;;31.17;28.67;100396.13;146616;573;46020;-80
2022/09/12 13:45:29;;;;;;;;;3.00;3.00;;;;;29.72;30.60;100151.03;146614;605;46016;-79
2022/09/12 13:48:37;;;;;;;;;2.00;2.00;;;;;31.22;28.76;100388.81;146618;656;46010;-77
2022/09/12 13:51:37;;;;;;;;;3.67;3.67;;;;;31.26;28.54;100393.09;146616;630;46014;-79
2022/09/12 13:54:42;;;;;;;;;;;;;;;;;;;;;
2022/09/12 13:57:42;;;;;;;;;3.00;2.00;;;;;31.36;28.88;100382.91;146613;597;46016;-78
2022/09/12 14:00:48;;;;;;;;;1.00;1.00;;;;;31.40;28.50;100386.34;146619;598;46014;-80
2022/09/12 14:07:30;;;;;;;;;1.00;0.00;;;;;31.41;27.61;100375.56;146616;632;46021;-76
2022/09/12 14:10:38;;;;;;;;;2.33;1.00;;;;;31.41;28.87;100374.72;146611;610;46016;-80
2022/09/12 14:13:31;;;;;;;;;1.67;1.67;;;;;31.42;27.04;100379.13;146617;600;46021;-79
2022/09/12 14:16:31;;;;;;;;;1.00;1.00;;;;;31.35;27.17;100381.19;146613;585;46016;-77
2022/09/12 14:19:33;;;;;;;;;0.33;0.33;;;;;31.27;26.83;100372.53;146618;573;46010;-82
2022/09/12 14:22:29;;;;;;;;;1.00;1.00;;;;;31.16;27.28;100370.31;146614;650;46012;-79
2022/09/12 14:25:46;;;;;;;;;2.00;1.33;;;;;31.09;28.88;100374.12;146617;676;46014;-78
2022/09/12 14:29:06;;;;;;;;;2.67;2.00;;;;;30.24;28.37;100223.09;146615;564;46012;-78
2022/09/12 14:32:21;;;;;;;;;2.67;1.00;;;;;31.13;28.69;100367.75;146620;593;46010;-81
2022/09/12 14:35:35;;;;;;;;;1.33;1.33;;;;;29.55;29.76;100090.16;146615;625;46016;-79
2022/09/12 14:38:48;;;;;;;;;;;;;;;;;;;;;
2022/09/12 14:41:47;;;;;;;;;1.00;1.00;;;;;31.17;28.96;100357.78;146615;621;46018;-78
2022/09/12 14:44:44;;;;;;;;;2.00;2.00;;;;;31.16;28.74;100359.59;146614;635;46020;-80
2022/09/12 14:47:48;;;;;;;;;3.33;2.33;;;;;31.18;29.28;100359.50;146613;588;46014;-79
2022/09/12 14:50:51;;;;;;;;;4.67;3.00;;;;;31.19;28.21;100348.75;146619;575;45021;-80
2022/09/12 14:53:58;;;;;;;;;3.00;3.00;;;;;31.17;29.34;100355.97;146614;583;46016;-78
2022/09/12 14:56:58;;;;;;;;;1.75;1.75;;;;;31.16;29.06;100354.22;146617;595;46021;-79
2022/09/12 14:59:58;;;;;;;;;2.00;2.00;;;;;31.13;28.11;100357.03;146613;572;46014;-79
2022/09/12 15:02:55;;;;;;;;;3.25;3.25;;;;;31.08;28.95;100359.00;146618;564;46010;-80
2022/09/12 15:05:57;;;;;;;;;1.00;1.00;;;;;30.99;28.12;100348.66;146616;612;46014;-80